createdAt,value
2018-09-27T00:00:22.414Z,99092.11
2018-09-27T00:00:54.037Z,99085.74
2018-09-27T00:01:25.670Z,99091.29
2018-09-27T00:01:57.275Z,99087.88
2018-09-27T00:02:28.879Z,99087.45
2018-09-27T00:03:00.482Z,99086.17
2018-09-27T00:03:32.086Z,99086.14
2018-09-27T00:04:03.684Z,99089.55
2018-09-27T00:04:35.291Z,99089.13
2018-09-27T00:05:06.894Z,99081.05
2018-09-27T00:05:38.504Z,99088.70
2018-09-27T00:06:10.132Z,99088.27
2018-09-27T00:06:41.725Z,99089.55
2018-09-27T00:07:13.324Z,99087.84
2018-09-27T00:07:44.927Z,99084.45
2018-09-27T00:08:16.530Z,99085.31
2018-09-27T00:08:48.138Z,99084.45
2018-09-27T00:09:19.751Z,99086.59
2018-09-27T00:09:51.358Z,99087.02
2018-09-27T00:10:22.964Z,99081.87
2018-09-27T00:10:54.570Z,99078.45
2018-09-27T00:11:26.174Z,99077.63
2018-09-27T00:11:57.779Z,99078.91
2018-09-27T00:12:29.390Z,99078.48
2018-09-27T00:13:00.994Z,99078.09
2018-09-27T00:13:32.606Z,99078.52
2018-09-27T00:14:04.200Z,99074.70
2018-09-27T00:14:35.792Z,99078.98
2018-09-27T00:15:07.398Z,99071.33
2018-09-27T00:15:38.988Z,99079.44
2018-09-27T00:16:10.618Z,99072.61
2018-09-27T00:16:42.222Z,99070.50
2018-09-27T00:17:13.833Z,99071.78
2018-09-27T00:17:45.438Z,99071.36
2018-09-27T00:18:17.042Z,99075.20
2018-09-27T00:18:48.657Z,99069.22
2018-09-27T00:19:20.267Z,99064.53
2018-09-27T00:19:51.871Z,99056.87
2018-09-27T00:20:23.486Z,99064.98
2018-09-27T00:20:55.080Z,99062.00
2018-09-27T00:21:26.682Z,99059.44
2018-09-27T00:21:58.272Z,99053.04
2018-09-27T00:22:29.878Z,99059.87
2018-09-27T00:23:01.484Z,99056.87
2018-09-27T00:23:33.090Z,99057.77
2018-09-27T00:24:04.694Z,99057.34
2018-09-27T00:24:36.299Z,99049.66
2018-09-27T00:25:07.907Z,99053.50
2018-09-27T00:25:39.510Z,99052.64
2018-09-27T00:26:11.148Z,99060.75
2018-09-27T00:26:42.799Z,99054.78
2018-09-27T00:27:14.407Z,99053.07
2018-09-27T00:27:45.996Z,99056.06
2018-09-27T00:28:17.592Z,99056.91
2018-09-27T00:28:49.200Z,99059.47
2018-09-27T00:29:20.797Z,99055.20
2018-09-27T00:29:52.394Z,99053.07
2018-09-27T00:30:23.984Z,99053.50
2018-09-27T00:30:55.566Z,99056.52
2018-09-27T00:31:27.171Z,99053.10
2018-09-27T00:31:58.800Z,99059.50
2018-09-27T00:32:30.379Z,99054.38
2018-09-27T00:33:01.987Z,99051.83
2018-09-27T00:33:33.576Z,99049.27
2018-09-27T00:34:05.187Z,99057.80
2018-09-27T00:34:36.795Z,99053.95
2018-09-27T00:35:08.384Z,99056.09
2018-09-27T00:35:39.991Z,99055.23
2018-09-27T00:36:11.602Z,99054.81
2018-09-27T00:36:43.218Z,99053.95
2018-09-27T00:37:14.795Z,99056.09
2018-09-27T00:37:46.390Z,99057.80
2018-09-27T00:38:17.994Z,99056.52
2018-09-27T00:38:49.584Z,99053.53
2018-09-27T00:39:21.190Z,99054.38
2018-09-27T00:39:52.780Z,99049.27
2018-09-27T00:40:24.376Z,99047.95
2018-09-27T00:40:55.983Z,99048.37
2018-09-27T00:41:27.597Z,99042.83
2018-09-27T00:41:59.238Z,99044.53
2018-09-27T00:42:30.843Z,99047.95
2018-09-27T00:43:02.436Z,99044.08
2018-09-27T00:43:34.099Z,99045.81
2018-09-27T00:44:05.688Z,99040.70
2018-09-27T00:44:37.291Z,99044.50
2018-09-27T00:45:08.886Z,99049.63
2018-09-27T00:45:40.476Z,99047.06
2018-09-27T00:46:12.064Z,99041.13
2018-09-27T00:46:43.718Z,99043.69
2018-09-27T00:47:15.298Z,99042.80
2018-09-27T00:47:46.892Z,99050.05
2018-09-27T00:48:18.494Z,99045.39
2018-09-27T00:48:50.094Z,99046.25
2018-09-27T00:49:21.694Z,99041.55
2018-09-27T00:49:53.270Z,99047.13
2018-09-27T00:50:24.847Z,99044.56
2018-09-27T00:50:56.438Z,99041.16
2018-09-27T00:51:28.039Z,99042.01
2018-09-27T00:51:59.677Z,99039.45
2018-09-27T00:52:31.272Z,99033.90
2018-09-27T00:53:02.864Z,99036.06
2018-09-27T00:53:34.447Z,99038.56
2018-09-27T00:54:06.046Z,99043.22
2018-09-27T00:54:37.640Z,99039.38
2018-09-27T00:55:09.254Z,99033.37
2018-09-27T00:55:40.857Z,99033.80
2018-09-27T00:56:12.462Z,99035.94
2018-09-27T00:56:44.070Z,99033.37
2018-09-27T00:57:15.696Z,99041.48
2018-09-27T00:57:47.297Z,99038.07
2018-09-27T00:58:18.889Z,99038.07
2018-09-27T00:58:50.499Z,99035.08
2018-09-27T00:59:22.082Z,99035.08
2018-09-27T00:59:53.683Z,99035.94
2018-09-27T01:00:25.270Z,99030.35
2018-09-27T01:00:56.879Z,99025.27
2018-09-27T01:01:28.486Z,99029.11
2018-09-27T01:02:00.127Z,99037.22
2018-09-27T01:02:31.720Z,99035.94
2018-09-27T01:03:03.299Z,99033.37
2018-09-27T01:03:35.228Z,99033.80
2018-09-27T01:04:06.807Z,99030.81
2018-09-27T01:04:38.413Z,99033.37
2018-09-27T01:05:10.014Z,99037.15
2018-09-27T01:05:41.663Z,99039.25
2018-09-27T01:06:13.268Z,99035.83
2018-09-27T01:06:44.861Z,99035.80
2018-09-27T01:07:16.498Z,99040.50
2018-09-27T01:07:48.102Z,99039.64
2018-09-27T01:08:19.691Z,99044.73
2018-09-27T01:08:51.294Z,99043.91
2018-09-27T01:09:22.898Z,99046.47
2018-09-27T01:09:54.492Z,99041.34
2018-09-27T01:10:26.094Z,99047.72
2018-09-27T01:10:57.690Z,99045.19
2018-09-27T01:11:29.292Z,99044.77
2018-09-27T01:12:00.933Z,99041.77
2018-09-27T01:12:32.532Z,99043.91
2018-09-27T01:13:04.129Z,99047.75
2018-09-27T01:13:35.738Z,99045.65
2018-09-27T01:14:07.342Z,99045.65
2018-09-27T01:14:38.955Z,99041.81
2018-09-27T01:15:10.544Z,99045.22
2018-09-27T01:15:42.146Z,99049.92
2018-09-27T01:16:13.754Z,99046.54
2018-09-27T01:16:45.353Z,99049.53
2018-09-27T01:17:16.991Z,99049.09
2018-09-27T01:17:48.580Z,99049.13
2018-09-27T01:18:20.171Z,99052.55
2018-09-27T01:18:51.775Z,99050.84
2018-09-27T01:19:23.360Z,99049.98
2018-09-27T01:19:54.952Z,99058.55
2018-09-27T01:20:26.544Z,99050.02
2018-09-27T01:20:58.126Z,99053.44
2018-09-27T01:21:29.727Z,99052.16
2018-09-27T01:22:01.335Z,99058.13
2018-09-27T01:22:32.955Z,99053.86
2018-09-27T01:23:04.559Z,99063.70
2018-09-27T01:23:36.166Z,99054.75
2018-09-27T01:24:07.756Z,99053.47
2018-09-27T01:24:39.345Z,99052.61
2018-09-27T01:25:10.948Z,99053.04
2018-09-27T01:25:42.545Z,99053.89
2018-09-27T01:26:14.135Z,99050.05
2018-09-27T01:26:46.030Z,99056.45
2018-09-27T01:27:17.643Z,99053.04
2018-09-27T01:27:49.240Z,99054.32
2018-09-27T01:28:20.845Z,99054.32
2018-09-27T01:28:52.450Z,99053.47
2018-09-27T01:29:24.080Z,99047.92
2018-09-27T01:29:55.676Z,99045.78
2018-09-27T01:30:27.278Z,99043.65
2018-09-27T01:30:58.868Z,99045.36
2018-09-27T01:31:30.474Z,99049.63
2018-09-27T01:32:02.069Z,99039.84
2018-09-27T01:32:33.715Z,99047.06
2018-09-27T01:33:05.312Z,99046.64
2018-09-27T01:33:36.923Z,99042.83
2018-09-27T01:34:08.523Z,99048.77
2018-09-27T01:34:40.131Z,99045.36
2018-09-27T01:35:11.728Z,99041.98
2018-09-27T01:35:43.316Z,99044.96
2018-09-27T01:36:14.904Z,99041.98
2018-09-27T01:36:46.496Z,99050.08
2018-09-27T01:37:18.106Z,99049.23
2018-09-27T01:37:49.710Z,99039.41
2018-09-27T01:38:21.304Z,99047.95
2018-09-27T01:38:52.892Z,99044.53
2018-09-27T01:39:24.494Z,99044.96
2018-09-27T01:39:56.089Z,99039.45
2018-09-27T01:40:27.689Z,99049.66
2018-09-27T01:40:59.280Z,99043.69
2018-09-27T01:41:30.872Z,99040.70
2018-09-27T01:42:02.468Z,99042.44
2018-09-27T01:42:34.096Z,99039.41
2018-09-27T01:43:05.698Z,99044.53
2018-09-27T01:43:37.288Z,99044.11
2018-09-27T01:44:08.894Z,99038.56
2018-09-27T01:44:40.499Z,99041.13
2018-09-27T01:45:12.101Z,99034.30
2018-09-27T01:45:43.706Z,99033.02
2018-09-27T01:46:15.290Z,99042.41
2018-09-27T01:46:46.891Z,99040.73
2018-09-27T01:47:18.526Z,99044.14
2018-09-27T01:47:50.120Z,99038.56
2018-09-27T01:48:21.722Z,99044.96
2018-09-27T01:48:53.330Z,99041.13
2018-09-27T01:49:24.953Z,99043.26
2018-09-27T01:49:56.581Z,99035.15
2018-09-27T01:50:28.177Z,99043.26
2018-09-27T01:50:59.764Z,99047.09
2018-09-27T01:51:31.353Z,99047.95
2018-09-27T01:52:02.948Z,99041.13
2018-09-27T01:52:34.587Z,99045.81
2018-09-27T01:53:06.203Z,99043.69
2018-09-27T01:53:37.801Z,99044.96
2018-09-27T01:54:09.411Z,99040.70
2018-09-27T01:54:41.004Z,99045.39
2018-09-27T01:55:12.606Z,99044.53
2018-09-27T01:55:44.222Z,99042.83
2018-09-27T01:56:15.834Z,99038.98
2018-09-27T01:56:47.443Z,99044.50
2018-09-27T01:57:19.055Z,99038.95
2018-09-27T01:57:50.671Z,99042.80
2018-09-27T01:58:22.256Z,99035.11
2018-09-27T01:58:53.844Z,99041.09
2018-09-27T01:59:25.432Z,99038.53
2018-09-27T01:59:57.034Z,99033.80
2018-09-27T02:00:28.615Z,99038.50
2018-09-27T02:01:00.222Z,99037.22
2018-09-27T02:01:31.813Z,99033.80
2018-09-27T02:02:03.414Z,99032.09
2018-09-27T02:02:35.045Z,99034.66
2018-09-27T02:03:06.640Z,99036.78
2018-09-27T02:03:38.232Z,99036.36
2018-09-27T02:04:09.840Z,99037.64
2018-09-27T02:04:41.433Z,99029.53
2018-09-27T02:05:13.034Z,99035.51
2018-09-27T02:05:44.614Z,99036.78
2018-09-27T02:06:16.219Z,99035.51
2018-09-27T02:06:47.830Z,99033.37
2018-09-27T02:07:19.420Z,99027.83
2018-09-27T02:07:51.220Z,99025.27
2018-09-27T02:08:22.826Z,99029.53
2018-09-27T02:08:54.430Z,99029.53
2018-09-27T02:09:26.028Z,99031.67
2018-09-27T02:09:57.616Z,99025.69
2018-09-27T02:10:29.219Z,99029.11
2018-09-27T02:11:00.831Z,99024.84
2018-09-27T02:11:32.424Z,99023.13
2018-09-27T02:12:04.012Z,99026.12
2018-09-27T02:12:35.640Z,99020.57
2018-09-27T02:13:07.236Z,99018.02
2018-09-27T02:13:38.828Z,99021.00
2018-09-27T02:14:10.425Z,99020.57
2018-09-27T02:14:42.020Z,99024.87
2018-09-27T02:15:13.623Z,99021.45
2018-09-27T02:15:45.230Z,99018.90
2018-09-27T02:16:16.839Z,99015.05
2018-09-27T02:16:48.443Z,99012.07
2018-09-27T02:17:20.045Z,99017.19
2018-09-27T02:17:51.651Z,99014.20
2018-09-27T02:18:23.244Z,99008.69
2018-09-27T02:18:54.847Z,99008.27
2018-09-27T02:19:26.444Z,99004.84
2018-09-27T02:19:58.032Z,99003.60
2018-09-27T02:20:29.634Z,99012.14
2018-09-27T02:21:01.210Z,99017.26
2018-09-27T02:21:32.814Z,99022.80
2018-09-27T02:22:04.408Z,99021.10
2018-09-27T02:22:36.047Z,99023.23
2018-09-27T02:23:07.661Z,99019.39
2018-09-27T02:23:39.267Z,99019.39
2018-09-27T02:24:10.869Z,99018.14
2018-09-27T02:24:42.472Z,99015.13
2018-09-27T02:25:14.058Z,99017.69
2018-09-27T02:25:45.649Z,99019.78
2018-09-27T02:26:17.254Z,99012.53
2018-09-27T02:26:48.844Z,99011.25
2018-09-27T02:27:20.436Z,99021.06
2018-09-27T02:27:52.060Z,99012.95
2018-09-27T02:28:23.662Z,99013.78
2018-09-27T02:28:55.252Z,99009.08
2018-09-27T02:29:26.844Z,99015.05
2018-09-27T02:29:58.446Z,99012.89
2018-09-27T02:30:30.034Z,99012.03
2018-09-27T02:31:01.624Z,99010.75
2018-09-27T02:31:33.230Z,99009.86
2018-09-27T02:32:04.824Z,99013.70
2018-09-27T02:32:36.416Z,99011.97
2018-09-27T02:33:08.039Z,99012.82
2018-09-27T02:33:39.627Z,99013.64
2018-09-27T02:34:11.220Z,99014.49
2018-09-27T02:34:42.808Z,99014.06
2018-09-27T02:35:14.405Z,99015.77
2018-09-27T02:35:46.010Z,99011.47
2018-09-27T02:36:17.590Z,99014.45
2018-09-27T02:36:49.195Z,99011.89
2018-09-27T02:37:20.802Z,99009.33
2018-09-27T02:37:52.429Z,99015.30
2018-09-27T02:38:24.038Z,99009.72
2018-09-27T02:38:55.634Z,99012.70
2018-09-27T02:39:27.241Z,99011.86
2018-09-27T02:39:58.836Z,99011.82
2018-09-27T02:40:30.438Z,99019.04
2018-09-27T02:41:02.055Z,99020.67
2018-09-27T02:41:33.652Z,99013.77
2018-09-27T02:42:05.231Z,99018.42
2018-09-27T02:42:36.824Z,99017.18
2018-09-27T02:43:08.458Z,99012.95
2018-09-27T02:43:40.052Z,99015.98
2018-09-27T02:44:11.645Z,99013.45
2018-09-27T02:44:43.227Z,99020.36
2018-09-27T02:45:14.830Z,99020.81
2018-09-27T02:45:46.435Z,99021.67
2018-09-27T02:46:18.033Z,99011.93
2018-09-27T02:46:49.621Z,99014.49
2018-09-27T02:47:21.224Z,99019.65
2018-09-27T02:47:52.816Z,99023.06
2018-09-27T02:48:24.449Z,99014.98
2018-09-27T02:48:56.044Z,99012.86
2018-09-27T02:49:27.647Z,99011.19
2018-09-27T02:49:59.226Z,99011.22
2018-09-27T02:50:30.842Z,99018.08
2018-09-27T02:51:02.455Z,99008.63
2018-09-27T02:51:34.048Z,99012.39
2018-09-27T02:52:05.640Z,99020.00
2018-09-27T02:52:37.232Z,99020.78
2018-09-27T02:53:08.885Z,99011.74
2018-09-27T02:53:40.481Z,99020.59
2018-09-27T02:54:12.081Z,99016.22
2018-09-27T02:54:43.672Z,99017.49
2018-09-27T02:55:15.255Z,99021.38
2018-09-27T02:55:46.858Z,99018.46
2018-09-27T02:56:18.460Z,99013.41
2018-09-27T02:56:50.056Z,99015.20
2018-09-27T02:57:21.654Z,99014.41
2018-09-27T02:57:53.234Z,99024.70
2018-09-27T02:58:24.861Z,99021.32
2018-09-27T02:58:56.450Z,99021.36
2018-09-27T02:59:28.035Z,99020.14
2018-09-27T02:59:59.632Z,99012.92
2018-09-27T03:00:31.215Z,99022.84
2018-09-27T03:01:02.806Z,99024.89
2018-09-27T03:01:34.392Z,99022.18
2018-09-27T03:02:05.987Z,99019.84
2018-09-27T03:02:37.595Z,99020.86
2018-09-27T03:03:09.234Z,99022.75
2018-09-27T03:03:40.838Z,99017.73
2018-09-27T03:04:12.452Z,99017.84
2018-09-27T03:04:44.066Z,99023.89
2018-09-27T03:05:15.647Z,99013.30
2018-09-27T03:05:47.241Z,99017.91
2018-09-27T03:06:18.823Z,99015.72
2018-09-27T03:06:50.416Z,99017.33
2018-09-27T03:07:22.012Z,99025.73
2018-09-27T03:07:53.605Z,99024.42
2018-09-27T03:08:25.247Z,99027.32
2018-09-27T03:08:56.826Z,99022.97
2018-09-27T03:09:28.417Z,99020.77
2018-09-27T03:10:00.017Z,99024.14
2018-09-27T03:10:31.599Z,99024.52
2018-09-27T03:11:03.177Z,99017.22
2018-09-27T03:11:34.771Z,99021.03
2018-09-27T03:12:06.386Z,99023.56
2018-09-27T03:12:37.970Z,99024.36
2018-09-27T03:13:09.575Z,99025.64
2018-09-27T03:13:41.228Z,99019.65
2018-09-27T03:14:12.825Z,99022.20
2018-09-27T03:14:44.417Z,99023.88
2018-09-27T03:15:16.023Z,99022.61
2018-09-27T03:15:47.616Z,99027.30
2018-09-27T03:16:19.216Z,99024.31
2018-09-27T03:16:50.804Z,99021.33
2018-09-27T03:17:22.396Z,99026.02
2018-09-27T03:17:53.989Z,99020.05
2018-09-27T03:18:25.622Z,99024.31
2018-09-27T03:18:57.253Z,99022.58
2018-09-27T03:19:28.860Z,99015.36
2018-09-27T03:20:00.467Z,99018.77
2018-09-27T03:20:32.063Z,99019.63
2018-09-27T03:21:03.740Z,99017.06
2018-09-27T03:21:35.288Z,99018.34
2018-09-27T03:22:06.892Z,99022.64
2018-09-27T03:22:38.501Z,99010.30
2018-09-27T03:23:10.096Z,99018.80
2018-09-27T03:23:41.747Z,99026.47
2018-09-27T03:24:13.332Z,99024.77
2018-09-27T03:24:44.921Z,99022.20
2018-09-27T03:25:16.519Z,99019.65
2018-09-27T03:25:48.124Z,99019.22
2018-09-27T03:26:19.712Z,99013.71
2018-09-27T03:26:51.290Z,99017.52
2018-09-27T03:27:22.885Z,99022.63
2018-09-27T03:27:54.491Z,99022.23
2018-09-27T03:28:26.088Z,99021.38
2018-09-27T03:28:57.698Z,99024.37
2018-09-27T03:29:29.299Z,99026.49
2018-09-27T03:30:00.891Z,99023.52
2018-09-27T03:30:32.480Z,99018.39
2018-09-27T03:31:04.081Z,99016.72
2018-09-27T03:31:35.686Z,99023.53
2018-09-27T03:32:07.290Z,99018.00
2018-09-27T03:32:38.885Z,99023.53
2018-09-27T03:33:10.490Z,99021.01
2018-09-27T03:33:42.125Z,99028.25
2018-09-27T03:34:13.712Z,99022.71
2018-09-27T03:34:45.300Z,99021.01
2018-09-27T03:35:16.948Z,99019.73
2018-09-27T03:35:48.522Z,99018.02
2018-09-27T03:36:20.112Z,99015.47
2018-09-27T03:36:51.719Z,99015.89
2018-09-27T03:37:23.314Z,99018.87
2018-09-27T03:37:54.918Z,99020.58
2018-09-27T03:38:26.517Z,99019.73
2018-09-27T03:38:58.140Z,99014.61
2018-09-27T03:39:29.728Z,99012.08
2018-09-27T03:40:01.352Z,99013.76
2018-09-27T03:40:32.965Z,99012.48
2018-09-27T03:41:04.555Z,99018.45
2018-09-27T03:41:36.153Z,99021.86
2018-09-27T03:42:07.769Z,99022.28
2018-09-27T03:42:39.360Z,99015.89
2018-09-27T03:43:10.962Z,99021.01
2018-09-27T03:43:42.584Z,99023.56
2018-09-27T03:44:14.185Z,99020.58
2018-09-27T03:44:45.786Z,99028.67
2018-09-27T03:45:17.398Z,99022.28
2018-09-27T03:45:49.002Z,99023.98
2018-09-27T03:46:20.592Z,99023.56
2018-09-27T03:46:52.190Z,99018.47
2018-09-27T03:47:23.788Z,99024.84
2018-09-27T03:47:55.382Z,99029.10
2018-09-27T03:48:26.972Z,99023.56
2018-09-27T03:48:58.591Z,99022.31
2018-09-27T03:49:30.195Z,99027.42
2018-09-27T03:50:01.803Z,99027.85
2018-09-27T03:50:33.401Z,99029.56
2018-09-27T03:51:04.992Z,99030.41
2018-09-27T03:51:36.596Z,99029.98
2018-09-27T03:52:08.199Z,99027.84
2018-09-27T03:52:39.810Z,99027.84
2018-09-27T03:53:11.405Z,99030.83
2018-09-27T03:53:43.042Z,99022.77
2018-09-27T03:54:14.650Z,99027.88
2018-09-27T03:54:46.241Z,99037.25
2018-09-27T03:55:17.835Z,99023.19
2018-09-27T03:55:49.420Z,99030.86
2018-09-27T03:56:21.027Z,99027.45
2018-09-27T03:56:52.636Z,99030.46
2018-09-27T03:57:24.238Z,99032.16
2018-09-27T03:57:55.847Z,99032.59
2018-09-27T03:58:27.464Z,99031.31
2018-09-27T03:58:59.122Z,99028.35
2018-09-27T03:59:30.727Z,99023.69
2018-09-27T04:00:02.324Z,99025.80
2018-09-27T04:00:33.926Z,99028.78
2018-09-27T04:01:05.535Z,99027.49
2018-09-27T04:01:37.128Z,99030.47
2018-09-27T04:02:08.730Z,99027.52
2018-09-27T04:02:40.342Z,99023.28
2018-09-27T04:03:12.004Z,99028.80
2018-09-27T04:03:43.598Z,99025.84
2018-09-27T04:04:15.189Z,99026.27
2018-09-27T04:04:46.780Z,99024.55
2018-09-27T04:05:18.368Z,99028.84
2018-09-27T04:05:49.976Z,99029.70
2018-09-27T04:06:21.605Z,99029.70
2018-09-27T04:06:53.194Z,99034.38
2018-09-27T04:07:24.788Z,99025.03
2018-09-27T04:07:56.384Z,99021.23
2018-09-27T04:08:27.976Z,99027.59
2018-09-27T04:08:59.610Z,99021.65
2018-09-27T04:09:31.209Z,99025.91
2018-09-27T04:10:02.805Z,99031.45
2018-09-27T04:10:34.405Z,99028.47
2018-09-27T04:11:05.996Z,99028.89
2018-09-27T04:11:37.602Z,99035.28
2018-09-27T04:12:09.207Z,99029.34
2018-09-27T04:12:40.841Z,99026.36
2018-09-27T04:13:12.402Z,99030.20
2018-09-27T04:13:44.024Z,99036.16
2018-09-27T04:14:15.633Z,99031.04
2018-09-27T04:14:47.224Z,99027.66
2018-09-27T04:15:18.825Z,99030.64
2018-09-27T04:15:50.457Z,99030.63
2018-09-27T04:16:22.051Z,99030.20
2018-09-27T04:16:53.640Z,99026.83
2018-09-27T04:17:25.242Z,99022.56
2018-09-27T04:17:56.823Z,99031.94
2018-09-27T04:18:28.412Z,99021.71
2018-09-27T04:19:00.031Z,99025.13
2018-09-27T04:19:31.635Z,99025.55
2018-09-27T04:20:03.243Z,99021.31
2018-09-27T04:20:34.850Z,99022.59
2018-09-27T04:21:06.440Z,99020.45
2018-09-27T04:21:38.076Z,99020.45
2018-09-27T04:22:09.643Z,99022.61
2018-09-27T04:22:41.246Z,99014.53
2018-09-27T04:23:12.850Z,99023.03
2018-09-27T04:23:44.466Z,99016.24
2018-09-27T04:24:16.072Z,99018.80
2018-09-27T04:24:47.654Z,99018.37
2018-09-27T04:25:19.255Z,99019.64
2018-09-27T04:25:50.863Z,99014.98
2018-09-27T04:26:22.452Z,99018.39
2018-09-27T04:26:55.146Z,99019.67
2018-09-27T04:27:26.740Z,99017.53
2018-09-27T04:27:58.333Z,99020.52
2018-09-27T04:28:29.910Z,99019.27
2018-09-27T04:29:01.500Z,99023.09
2018-09-27T04:29:33.110Z,99022.25
2018-09-27T04:30:04.715Z,99024.38
2018-09-27T04:30:36.318Z,99013.32
2018-09-27T04:31:07.912Z,99013.75
2018-09-27T04:31:39.522Z,99019.28
2018-09-27T04:32:11.126Z,99014.17
2018-09-27T04:32:42.724Z,99016.30
2018-09-27T04:33:14.316Z,99018.42
2018-09-27T04:33:45.931Z,99017.58
2018-09-27T04:34:17.537Z,99016.33
2018-09-27T04:34:49.128Z,99015.05
2018-09-27T04:35:20.723Z,99019.73
2018-09-27T04:35:52.331Z,99015.05
2018-09-27T04:36:23.939Z,99018.02
2018-09-27T04:36:55.523Z,99023.14
2018-09-27T04:37:27.119Z,99019.30
2018-09-27T04:37:58.712Z,99020.58
2018-09-27T04:38:30.315Z,99024.84
2018-09-27T04:39:01.945Z,99021.03
2018-09-27T04:39:33.540Z,99020.61
2018-09-27T04:40:05.147Z,99022.30
2018-09-27T04:40:36.727Z,99021.03
2018-09-27T04:41:08.303Z,99017.62
2018-09-27T04:41:39.923Z,99019.31
2018-09-27T04:42:11.515Z,99015.48
2018-09-27T04:42:43.109Z,99018.47
2018-09-27T04:43:14.710Z,99020.63
2018-09-27T04:43:46.315Z,99018.92
2018-09-27T04:44:17.941Z,99014.23
2018-09-27T04:44:49.536Z,99019.77
2018-09-27T04:45:21.128Z,99016.36
2018-09-27T04:45:52.792Z,99018.49
2018-09-27T04:46:24.361Z,99018.91
2018-09-27T04:46:55.962Z,99020.61
2018-09-27T04:47:27.552Z,99017.23
2018-09-27T04:47:59.148Z,99017.63
2018-09-27T04:48:30.744Z,99022.74
2018-09-27T04:49:02.375Z,99019.79
2018-09-27T04:49:33.958Z,99021.06
2018-09-27T04:50:05.953Z,99014.27
2018-09-27T04:50:37.559Z,99026.59
2018-09-27T04:51:09.152Z,99024.47
2018-09-27T04:51:40.788Z,99023.19
2018-09-27T04:52:12.352Z,99023.61
2018-09-27T04:52:43.947Z,99030.03
2018-09-27T04:53:15.541Z,99022.78
2018-09-27T04:53:47.169Z,99025.34
2018-09-27T04:54:18.803Z,99022.36
2018-09-27T04:54:50.399Z,99033.44
2018-09-27T04:55:21.993Z,99030.87
2018-09-27T04:55:53.588Z,99027.89
2018-09-27T04:56:25.175Z,99030.86
2018-09-27T04:56:56.764Z,99030.00
2018-09-27T04:57:28.384Z,99030.02
2018-09-27T04:57:59.975Z,99035.98
2018-09-27T04:58:31.579Z,99039.80
2018-09-27T04:59:03.204Z,99036.40
2018-09-27T04:59:34.842Z,99038.95
2018-09-27T05:00:06.523Z,99036.83
2018-09-27T05:00:38.043Z,99037.67
2018-09-27T05:01:09.633Z,99034.27
2018-09-27T05:01:41.224Z,99032.56
2018-09-27T05:02:12.817Z,99030.86
2018-09-27T05:02:44.427Z,99032.56
2018-09-27T05:03:16.017Z,99033.84
2018-09-27T05:03:47.694Z,99034.24
2018-09-27T05:04:19.271Z,99027.45
2018-09-27T05:04:50.865Z,99027.01
2018-09-27T05:05:22.452Z,99031.30
2018-09-27T05:05:54.047Z,99030.88
2018-09-27T05:06:25.670Z,99030.45
2018-09-27T05:06:57.257Z,99029.58
2018-09-27T05:07:28.850Z,99024.05
2018-09-27T05:08:00.439Z,99029.59
2018-09-27T05:08:32.023Z,99025.75
2018-09-27T05:09:03.631Z,99031.70
2018-09-27T05:09:35.297Z,99024.43
2018-09-27T05:10:06.864Z,99026.56
2018-09-27T05:10:38.457Z,99029.52
2018-09-27T05:11:10.048Z,99028.67
2018-09-27T05:11:41.655Z,99031.65
2018-09-27T05:12:13.258Z,99026.09
2018-09-27T05:12:44.848Z,99026.10
2018-09-27T05:13:16.440Z,99027.75
2018-09-27T05:13:48.042Z,99025.20
2018-09-27T05:14:19.668Z,99026.88
2018-09-27T05:14:51.271Z,99026.89
2018-09-27T05:15:22.901Z,99029.02
2018-09-27T05:15:54.544Z,99021.75
2018-09-27T05:16:26.113Z,99025.59
2018-09-27T05:16:57.690Z,99026.87
2018-09-27T05:17:29.268Z,99027.30
2018-09-27T05:18:00.861Z,99035.79
2018-09-27T05:18:32.453Z,99035.38
2018-09-27T05:19:04.066Z,99034.95
2018-09-27T05:19:35.682Z,99030.23
2018-09-27T05:20:07.286Z,99031.09
2018-09-27T05:20:38.867Z,99036.17
2018-09-27T05:21:10.474Z,99029.38
2018-09-27T05:21:42.092Z,99027.66
2018-09-27T05:22:13.684Z,99031.06
2018-09-27T05:22:45.290Z,99033.63
2018-09-27T05:23:16.884Z,99030.22
2018-09-27T05:23:48.477Z,99032.34
2018-09-27T05:24:20.115Z,99033.20
2018-09-27T05:24:51.694Z,99034.02
2018-09-27T05:25:23.289Z,99037.43
2018-09-27T05:25:54.894Z,99034.02
2018-09-27T05:26:26.475Z,99035.73
2018-09-27T05:26:58.073Z,99028.91
2018-09-27T05:27:29.701Z,99034.42
2018-09-27T05:28:01.312Z,99032.72
2018-09-27T05:28:32.905Z,99031.45
2018-09-27T05:29:04.506Z,99029.73
2018-09-27T05:29:36.132Z,99031.02
2018-09-27T05:30:07.735Z,99031.88
2018-09-27T05:30:39.329Z,99031.88
2018-09-27T05:31:10.924Z,99037.41
2018-09-27T05:31:42.513Z,99029.75
2018-09-27T05:32:14.100Z,99038.27
2018-09-27T05:32:45.705Z,99033.15
2018-09-27T05:33:17.286Z,99035.31
2018-09-27T05:33:48.868Z,99035.70
2018-09-27T05:34:20.496Z,99035.28
2018-09-27T05:34:52.120Z,99036.98
2018-09-27T05:35:23.713Z,99034.86
2018-09-27T05:35:55.322Z,99034.00
2018-09-27T05:36:26.935Z,99034.00
2018-09-27T05:36:58.546Z,99033.16
2018-09-27T05:37:30.127Z,99031.45
2018-09-27T05:38:01.735Z,99036.12
2018-09-27T05:38:33.328Z,99038.27
2018-09-27T05:39:04.940Z,99031.87
2018-09-27T05:39:36.622Z,99035.28
2018-09-27T05:40:08.208Z,99041.69
2018-09-27T05:40:39.810Z,99042.13
2018-09-27T05:41:11.404Z,99035.73
2018-09-27T05:41:43.010Z,99039.98
2018-09-27T05:42:14.604Z,99039.56
2018-09-27T05:42:46.211Z,99033.62
2018-09-27T05:43:18.828Z,99033.63
2018-09-27T05:43:50.426Z,99044.25
2018-09-27T05:44:22.025Z,99045.55
2018-09-27T05:44:53.638Z,99044.27
2018-09-27T05:45:25.243Z,99040.02
2018-09-27T05:45:56.862Z,99039.18
2018-09-27T05:46:28.457Z,99041.28
2018-09-27T05:47:00.072Z,99047.67
2018-09-27T05:47:31.678Z,99041.31
2018-09-27T05:48:03.277Z,99037.05
2018-09-27T05:48:34.864Z,99043.44
2018-09-27T05:49:06.453Z,99044.31
2018-09-27T05:49:38.091Z,99035.79
2018-09-27T05:50:09.684Z,99040.07
2018-09-27T05:50:41.276Z,99038.82
2018-09-27T05:51:12.882Z,99041.77
2018-09-27T05:51:44.463Z,99039.22
2018-09-27T05:52:16.052Z,99043.93
2018-09-27T05:52:47.654Z,99037.97
2018-09-27T05:53:19.258Z,99044.78
2018-09-27T05:53:50.862Z,99043.07
2018-09-27T05:54:22.457Z,99039.27
2018-09-27T05:54:54.095Z,99038.41
2018-09-27T05:55:25.684Z,99038.84
2018-09-27T05:55:57.290Z,99040.53
2018-09-27T05:56:28.896Z,99035.00
2018-09-27T05:57:00.502Z,99041.39
2018-09-27T05:57:32.123Z,99035.45
2018-09-27T05:58:03.698Z,99040.13
2018-09-27T05:58:35.283Z,99040.59
2018-09-27T05:59:06.887Z,99031.21
2018-09-27T05:59:38.512Z,99034.61
2018-09-27T06:00:10.115Z,99029.50
2018-09-27T06:00:41.698Z,99029.92
2018-09-27T06:01:13.281Z,99035.06
2018-09-27T06:01:44.876Z,99031.66
2018-09-27T06:02:16.483Z,99036.34
2018-09-27T06:02:48.080Z,99036.76
2018-09-27T06:03:19.679Z,99034.66
2018-09-27T06:03:51.272Z,99041.90
2018-09-27T06:04:22.864Z,99034.23
2018-09-27T06:04:54.505Z,99035.08
2018-09-27T06:05:26.092Z,99035.92
2018-09-27T06:05:57.695Z,99034.25
2018-09-27T06:06:29.298Z,99035.95
2018-09-27T06:07:00.893Z,99038.08
2018-09-27T06:07:32.505Z,99035.52
2018-09-27T06:08:04.100Z,99032.11
2018-09-27T06:08:35.697Z,99033.82
2018-09-27T06:09:07.289Z,99040.63
2018-09-27T06:09:38.938Z,99036.80
2018-09-27T06:10:10.536Z,99038.10
2018-09-27T06:10:42.143Z,99034.27
2018-09-27T06:11:13.791Z,99038.52